TimeCAT,TemperatureF,Dew PointF,Humidity,Sea Level PressureIn,VisibilityMPH,Wind Direction,Wind SpeedMPH,Gust SpeedMPH,PrecipitationIn,Events,Conditions,WindDirDegrees,DateUTC
12:00 AM,75.2,51.8,44,30.06,-9999.0,ESE,8.1,-,N/A,,Clear,120,2012-11-02 22:00:00
1:00 AM,73.4,51.8,47,30.06,-9999.0,SE,8.1,-,N/A,,Clear,130,2012-11-02 23:00:00
2:00 AM,68,50,41,,6,SE,4.6,,,,,130,2012-11-03 00:00:00
3:00 AM,71.6,51.8,50,30.06,-9999.0,ESE,13.8,-,N/A,,Clear,120,2012-11-03 01:00:00
4:00 AM,71.6,50.0,46,30.06,-9999.0,ESE,12.7,-,N/A,,Clear,110,2012-11-03 02:00:00
5:00 AM,69.8,46.4,43,30.09,-9999.0,ESE,12.7,-,N/A,,Clear,110,2012-11-03 03:00:00
6:00 AM,68.0,44.6,43,30.09,-9999.0,ESE,11.5,-,N/A,,Clear,110,2012-11-03 04:00:00
7:00 AM,69.8,46.4,43,30.12,-9999.0,East,12.7,-,N/A,,Clear,100,2012-11-03 05:00:00
8:00 AM,73.4,51.8,47,30.15,-9999.0,East,13.8,-,N/A,,Clear,90,2012-11-03 06:00:00
9:00 AM,77.0,57.2,50,30.15,-9999.0,NE,5.8,-,N/A,,Clear,50,2012-11-03 07:00:00
10:00 AM,80.6,59.0,48,30.12,-9999.0,NNE,11.5,-,N/A,,Clear,20,2012-11-03 08:00:00
11:00 AM,82.4,59.0,45,30.09,6.2,NNE,10.4,-,N/A,,Scattered Clouds,20,2012-11-03 09:00:00
12:00 PM,86.0,57.2,37,30.06,6.2,North,3.5,-,N/A,,Scattered Clouds,360,2012-11-03 10:00:00
1:00 PM,86.0,59.0,40,30.06,6.2,North,4.6,-,N/A,,Scattered Clouds,360,2012-11-03 11:00:00
2:00 PM,87.8,57.2,35,30.04,6.2,NE,8.1,-,N/A,,Scattered Clouds,50,2012-11-03 12:00:00
3:00 PM,87.8,57.2,35,30.01,6.2,SE,4.6,-,N/A,,Scattered Clouds,140,2012-11-03 13:00:00
4:00 PM,89.6,55.4,31,29.98,6.2,SW,6.9,-,N/A,,Scattered Clouds,220,2012-11-03 14:00:00
5:00 PM,89.6,55.4,31,29.98,6.2,Variable,1.2,-,N/A,,Scattered Clouds,0,2012-11-03 15:00:00
6:00 PM,87.8,53.6,31,29.98,6.2,SSE,5.8,-,N/A,,Partly Cloudy,150,2012-11-03 16:00:00
7:00 PM,86.0,55.4,35,29.98,6.2,East,5.8,-,N/A,,Partly Cloudy,90,2012-11-03 17:00:00
8:00 PM,82,53,26,,6,East,8.1,,,,Scattered Clouds,100,2012-11-03 18:00:00
8:00 PM,82.4,53.6,37,29.98,-9999.0,East,8.1,-,N/A,,Clear,100,2012-11-03 18:00:00
9:00 PM,80.6,50.0,34,29.98,-9999.0,East,9.2,-,N/A,,Clear,100,2012-11-03 19:00:00
10:00 PM,77.0,50.0,39,30.01,-9999.0,East,8.1,-,N/A,,Clear,100,2012-11-03 20:00:00
11:00 PM,73.4,50.0,44,30.04,-9999.0,ESE,5.8,-,N/A,,Clear,120,2012-11-03 21:00:00